sensor_id;sensor_type;location;lat;lon;timestamp;P1;durP1;ratioP1;P2;durP2;ratioP2
7383;SDS011;3733;47.994;8.820;2023-02-19T00:01:18;3.63;;;3.07;;
7383;SDS011;3733;47.994;8.820;2023-02-19T00:03:49;5.57;;;3.40;;
7383;SDS011;3733;47.994;8.820;2023-02-19T00:06:16;5.00;;;3.17;;
7383;SDS011;3733;47.994;8.820;2023-02-19T00:08:43;3.60;;;3.03;;
7383;SDS011;3733;47.994;8.820;2023-02-19T00:11:12;4.50;;;3.30;;
7383;SDS011;3733;47.994;8.820;2023-02-19T00:13:40;7.23;;;4.63;;
7383;SDS011;3733;47.994;8.820;2023-02-19T00:16:08;5.77;;;3.87;;
7383;SDS011;3733;47.994;8.820;2023-02-19T00:18:36;5.07;;;3.17;;
7383;SDS011;3733;47.994;8.820;2023-02-19T00:21:02;3.70;;;3.20;;
7383;SDS011;3733;47.994;8.820;2023-02-19T00:23:28;2.80;;;2.60;;
7383;SDS011;3733;47.994;8.820;2023-02-19T00:25:54;3.90;;;2.90;;
7383;SDS011;3733;47.994;8.820;2023-02-19T00:28:20;4.17;;;2.93;;
7383;SDS011;3733;47.994;8.820;2023-02-19T00:30:46;4.20;;;2.90;;
7383;SDS011;3733;47.994;8.820;2023-02-19T00:33:12;3.27;;;2.87;;
7383;SDS011;3733;47.994;8.820;2023-02-19T00:35:38;3.80;;;2.70;;
7383;SDS011;3733;47.994;8.820;2023-02-19T00:38:03;3.73;;;2.40;;
7383;SDS011;3733;47.994;8.820;2023-02-19T00:40:29;4.47;;;2.97;;
7383;SDS011;3733;47.994;8.820;2023-02-19T00:42:55;4.90;;;2.87;;
7383;SDS011;3733;47.994;8.820;2023-02-19T00:45:21;3.10;;;2.80;;
7383;SDS011;3733;47.994;8.820;2023-02-19T00:47:46;3.20;;;2.90;;
7383;SDS011;3733;47.994;8.820;2023-02-19T00:50:12;4.73;;;3.00;;
7383;SDS011;3733;47.994;8.820;2023-02-19T00:52:37;3.03;;;2.37;;
7383;SDS011;3733;47.994;8.820;2023-02-19T00:55:03;3.13;;;2.73;;
7383;SDS011;3733;47.994;8.820;2023-02-19T00:57:29;5.20;;;2.83;;
7383;SDS011;3733;47.994;8.820;2023-02-19T00:59:55;2.80;;;2.60;;
7383;SDS011;3733;47.994;8.820;2023-02-19T01:02:20;3.10;;;2.57;;
7383;SDS011;3733;47.994;8.820;2023-02-19T01:04:46;3.53;;;2.30;;
7383;SDS011;3733;47.994;8.820;2023-02-19T01:07:11;3.87;;;2.80;;
7383;SDS011;3733;47.994;8.820;2023-02-19T01:09:37;3.10;;;2.70;;
7383;SDS011;3733;47.994;8.820;2023-02-19T01:12:05;3.77;;;2.77;;
7383;SDS011;3733;47.994;8.820;2023-02-19T01:14:31;2.87;;;2.50;;
7383;SDS011;3733;47.994;8.820;2023-02-19T01:16:57;3.37;;;2.47;;
7383;SDS011;3733;47.994;8.820;2023-02-19T01:19:23;3.30;;;2.40;;
7383;SDS011;3733;47.994;8.820;2023-02-19T01:21:49;3.07;;;2.53;;
7383;SDS011;3733;47.994;8.820;2023-02-19T01:24:14;2.90;;;2.63;;
7383;SDS011;3733;47.994;8.820;2023-02-19T01:26:41;3.40;;;2.73;;
7383;SDS011;3733;47.994;8.820;2023-02-19T01:29:07;3.13;;;2.83;;
7383;SDS011;3733;47.994;8.820;2023-02-19T01:31:33;3.80;;;2.37;;
7383;SDS011;3733;47.994;8.820;2023-02-19T01:34:00;5.53;;;2.93;;
7383;SDS011;3733;47.994;8.820;2023-02-19T01:36:27;2.20;;;2.10;;
7383;SDS011;3733;47.994;8.820;2023-02-19T01:38:53;2.60;;;2.30;;
7383;SDS011;3733;47.994;8.820;2023-02-19T01:41:21;2.97;;;2.57;;
7383;SDS011;3733;47.994;8.820;2023-02-19T01:46:29;2.70;;;2.50;;
7383;SDS011;3733;47.994;8.820;2023-02-19T01:49:18;2.53;;;2.30;;
7383;SDS011;3733;47.994;8.820;2023-02-19T01:51:50;2.50;;;2.30;;
7383;SDS011;3733;47.994;8.820;2023-02-19T01:54:24;2.33;;;2.20;;
7383;SDS011;3733;47.994;8.820;2023-02-19T01:56:52;2.37;;;2.17;;
7383;SDS011;3733;47.994;8.820;2023-02-19T01:59:19;2.77;;;2.50;;
7383;SDS011;3733;47.994;8.820;2023-02-19T02:01:45;2.40;;;2.27;;
7383;SDS011;3733;47.994;8.820;2023-02-19T02:04:11;2.87;;;2.43;;
7383;SDS011;3733;47.994;8.820;2023-02-19T02:09:18;2.90;;;2.30;;
7383;SDS011;3733;47.994;8.820;2023-02-19T02:12:03;3.10;;;2.33;;
7383;SDS011;3733;47.994;8.820;2023-02-19T02:14:30;2.40;;;2.20;;
7383;SDS011;3733;47.994;8.820;2023-02-19T02:17:19;2.87;;;2.30;;
7383;SDS011;3733;47.994;8.820;2023-02-19T02:30:58;3.23;;;2.30;;
7383;SDS011;3733;47.994;8.820;2023-02-19T02:38:31;2.20;;;2.10;;
7383;SDS011;3733;47.994;8.820;2023-02-19T02:41:00;4.60;;;2.07;;
7383;SDS011;3733;47.994;8.820;2023-02-19T02:43:27;3.80;;;2.80;;
7383;SDS011;3733;47.994;8.820;2023-02-19T02:45:53;2.37;;;2.17;;
7383;SDS011;3733;47.994;8.820;2023-02-19T02:48:21;6.10;;;2.10;;
7383;SDS011;3733;47.994;8.820;2023-02-19T02:50:55;3.00;;;2.60;;
7383;SDS011;3733;47.994;8.820;2023-02-19T02:53:33;3.10;;;2.80;;
7383;SDS011;3733;47.994;8.820;2023-02-19T02:56:25;3.60;;;2.40;;
7383;SDS011;3733;47.994;8.820;2023-02-19T02:58:51;4.73;;;2.60;;
7383;SDS011;3733;47.994;8.820;2023-02-19T03:04:14;3.20;;;2.87;;
7383;SDS011;3733;47.994;8.820;2023-02-19T03:06:48;4.70;;;2.50;;
7383;SDS011;3733;47.994;8.820;2023-02-19T03:09:17;2.93;;;2.40;;
7383;SDS011;3733;47.994;8.820;2023-02-19T03:12:04;2.87;;;2.67;;
7383;SDS011;3733;47.994;8.820;2023-02-19T03:14:52;2.33;;;2.13;;
7383;SDS011;3733;47.994;8.820;2023-02-19T03:17:47;2.40;;;2.20;;
7383;SDS011;3733;47.994;8.820;2023-02-19T03:20:39;2.63;;;2.43;;
7383;SDS011;3733;47.994;8.820;2023-02-19T03:23:08;3.13;;;2.23;;
7383;SDS011;3733;47.994;8.820;2023-02-19T03:25:35;2.53;;;2.30;;
7383;SDS011;3733;47.994;8.820;2023-02-19T03:28:22;3.67;;;2.63;;
7383;SDS011;3733;47.994;8.820;2023-02-19T03:31:12;2.53;;;2.33;;
7383;SDS011;3733;47.994;8.820;2023-02-19T03:33:42;5.20;;;2.87;;
7383;SDS011;3733;47.994;8.820;2023-02-19T03:36:11;2.23;;;2.13;;
7383;SDS011;3733;47.994;8.820;2023-02-19T03:38:44;2.73;;;1.90;;
7383;SDS011;3733;47.994;8.820;2023-02-19T03:41:27;2.20;;;2.10;;
7383;SDS011;3733;47.994;8.820;2023-02-19T03:47:04;2.77;;;2.47;;
7383;SDS011;3733;47.994;8.820;2023-02-19T03:55:10;2.93;;;2.50;;
7383;SDS011;3733;47.994;8.820;2023-02-19T04:00:22;2.40;;;2.20;;
7383;SDS011;3733;47.994;8.820;2023-02-19T04:03:05;2.30;;;2.10;;
7383;SDS011;3733;47.994;8.820;2023-02-19T04:05:34;4.00;;;2.03;;
7383;SDS011;3733;47.994;8.820;2023-02-19T04:08:07;1.93;;;1.83;;
7383;SDS011;3733;47.994;8.820;2023-02-19T04:10:37;2.57;;;2.30;;
7383;SDS011;3733;47.994;8.820;2023-02-19T04:13:05;2.80;;;2.10;;
7383;SDS011;3733;47.994;8.820;2023-02-19T04:15:41;2.80;;;1.93;;
7383;SDS011;3733;47.994;8.820;2023-02-19T04:18:19;2.53;;;2.30;;
7383;SDS011;3733;47.994;8.820;2023-02-19T04:20:49;3.40;;;2.07;;
7383;SDS011;3733;47.994;8.820;2023-02-19T04:23:16;2.17;;;1.70;;
7383;SDS011;3733;47.994;8.820;2023-02-19T04:25:45;2.20;;;2.00;;
7383;SDS011;3733;47.994;8.820;2023-02-19T04:28:14;2.10;;;1.97;;
7383;SDS011;3733;47.994;8.820;2023-02-19T04:30:41;3.20;;;2.30;;
7383;SDS011;3733;47.994;8.820;2023-02-19T04:33:07;3.00;;;1.80;;
7383;SDS011;3733;47.994;8.820;2023-02-19T04:35:33;3.47;;;1.97;;
7383;SDS011;3733;47.994;8.820;2023-02-19T04:37:59;2.17;;;1.97;;
7383;SDS011;3733;47.994;8.820;2023-02-19T04:40:24;2.80;;;2.17;;
7383;SDS011;3733;47.994;8.820;2023-02-19T04:42:50;2.17;;;2.07;;
7383;SDS011;3733;47.994;8.820;2023-02-19T04:45:17;2.00;;;1.90;;
7383;SDS011;3733;47.994;8.820;2023-02-19T04:47:42;2.20;;;2.00;;
7383;SDS011;3733;47.994;8.820;2023-02-19T04:50:08;3.10;;;2.57;;
7383;SDS011;3733;47.994;8.820;2023-02-19T04:52:34;2.00;;;1.73;;
7383;SDS011;3733;47.994;8.820;2023-02-19T04:54:59;1.93;;;1.83;;
7383;SDS011;3733;47.994;8.820;2023-02-19T04:57:25;1.97;;;1.77;;
7383;SDS011;3733;47.994;8.820;2023-02-19T04:59:51;4.40;;;1.90;;
7383;SDS011;3733;47.994;8.820;2023-02-19T05:02:17;2.00;;;1.90;;
7383;SDS011;3733;47.994;8.820;2023-02-19T05:04:42;1.70;;;1.60;;
7383;SDS011;3733;47.994;8.820;2023-02-19T05:07:08;1.97;;;1.70;;
7383;SDS011;3733;47.994;8.820;2023-02-19T05:09:33;2.50;;;1.70;;
7383;SDS011;3733;47.994;8.820;2023-02-19T05:11:59;1.63;;;1.53;;
7383;SDS011;3733;47.994;8.820;2023-02-19T05:14:24;1.73;;;1.50;;
7383;SDS011;3733;47.994;8.820;2023-02-19T05:16:50;2.27;;;1.83;;
7383;SDS011;3733;47.994;8.820;2023-02-19T05:19:16;2.03;;;1.93;;
7383;SDS011;3733;47.994;8.820;2023-02-19T05:21:41;2.23;;;1.70;;
7383;SDS011;3733;47.994;8.820;2023-02-19T05:24:07;1.80;;;1.70;;
7383;SDS011;3733;47.994;8.820;2023-02-19T05:26:33;2.53;;;2.03;;
7383;SDS011;3733;47.994;8.820;2023-02-19T05:28:59;2.20;;;2.00;;
7383;SDS011;3733;47.994;8.820;2023-02-19T05:31:25;2.20;;;1.83;;
7383;SDS011;3733;47.994;8.820;2023-02-19T05:33:50;2.20;;;1.90;;
7383;SDS011;3733;47.994;8.820;2023-02-19T05:36:17;1.73;;;1.63;;
7383;SDS011;3733;47.994;8.820;2023-02-19T05:38:44;2.00;;;1.73;;
7383;SDS011;3733;47.994;8.820;2023-02-19T05:41:15;1.70;;;1.60;;
7383;SDS011;3733;47.994;8.820;2023-02-19T05:43:42;3.03;;;1.77;;
7383;SDS011;3733;47.994;8.820;2023-02-19T05:46:10;1.87;;;1.77;;
7383;SDS011;3733;47.994;8.820;2023-02-19T05:48:37;3.33;;;2.50;;
7383;SDS011;3733;47.994;8.820;2023-02-19T05:51:03;2.33;;;2.00;;
7383;SDS011;3733;47.994;8.820;2023-02-19T05:53:30;1.70;;;1.60;;
7383;SDS011;3733;47.994;8.820;2023-02-19T05:55:56;1.60;;;1.50;;
7383;SDS011;3733;47.994;8.820;2023-02-19T05:58:22;1.77;;;1.67;;
7383;SDS011;3733;47.994;8.820;2023-02-19T06:00:48;1.80;;;1.70;;
7383;SDS011;3733;47.994;8.820;2023-02-19T06:03:13;1.93;;;1.80;;
7383;SDS011;3733;47.994;8.820;2023-02-19T06:05:39;1.53;;;1.43;;
7383;SDS011;3733;47.994;8.820;2023-02-19T06:08:05;1.70;;;1.60;;
7383;SDS011;3733;47.994;8.820;2023-02-19T06:10:30;1.73;;;1.63;;
7383;SDS011;3733;47.994;8.820;2023-02-19T06:12:56;1.93;;;1.80;;
7383;SDS011;3733;47.994;8.820;2023-02-19T06:15:21;2.10;;;1.57;;
7383;SDS011;3733;47.994;8.820;2023-02-19T06:17:47;1.70;;;1.60;;
7383;SDS011;3733;47.994;8.820;2023-02-19T06:20:13;1.80;;;1.70;;
7383;SDS011;3733;47.994;8.820;2023-02-19T06:22:39;1.63;;;1.53;;
7383;SDS011;3733;47.994;8.820;2023-02-19T06:25:04;1.90;;;1.80;;
7383;SDS011;3733;47.994;8.820;2023-02-19T06:27:32;1.70;;;1.50;;
7383;SDS011;3733;47.994;8.820;2023-02-19T06:29:57;1.73;;;1.63;;
7383;SDS011;3733;47.994;8.820;2023-02-19T06:32:23;1.33;;;1.33;;
7383;SDS011;3733;47.994;8.820;2023-02-19T06:34:49;1.60;;;1.50;;
7383;SDS011;3733;47.994;8.820;2023-02-19T06:37:14;1.80;;;1.70;;
7383;SDS011;3733;47.994;8.820;2023-02-19T06:39:40;1.93;;;1.60;;
7383;SDS011;3733;47.994;8.820;2023-02-19T06:42:05;1.80;;;1.70;;
7383;SDS011;3733;47.994;8.820;2023-02-19T06:44:31;1.80;;;1.70;;
7383;SDS011;3733;47.994;8.820;2023-02-19T06:46:57;2.00;;;1.80;;
7383;SDS011;3733;47.994;8.820;2023-02-19T06:49:22;1.70;;;1.60;;
7383;SDS011;3733;47.994;8.820;2023-02-19T06:51:48;2.53;;;2.20;;
7383;SDS011;3733;47.994;8.820;2023-02-19T06:54:13;2.13;;;2.03;;
7383;SDS011;3733;47.994;8.820;2023-02-19T06:56:39;1.77;;;1.67;;
7383;SDS011;3733;47.994;8.820;2023-02-19T06:59:07;1.60;;;1.50;;
7383;SDS011;3733;47.994;8.820;2023-02-19T07:01:37;1.87;;;1.77;;
7383;SDS011;3733;47.994;8.820;2023-02-19T07:04:04;1.60;;;1.50;;
7383;SDS011;3733;47.994;8.820;2023-02-19T07:06:31;1.90;;;1.80;;
7383;SDS011;3733;47.994;8.820;2023-02-19T07:08:57;1.60;;;1.50;;
7383;SDS011;3733;47.994;8.820;2023-02-19T07:11:24;1.70;;;1.60;;
7383;SDS011;3733;47.994;8.820;2023-02-19T07:13:56;1.40;;;1.30;;
7383;SDS011;3733;47.994;8.820;2023-02-19T07:16:23;1.40;;;1.30;;
7383;SDS011;3733;47.994;8.820;2023-02-19T07:18:49;1.30;;;1.20;;
7383;SDS011;3733;47.994;8.820;2023-02-19T07:21:15;1.70;;;1.60;;
7383;SDS011;3733;47.994;8.820;2023-02-19T07:23:42;2.27;;;1.20;;
7383;SDS011;3733;47.994;8.820;2023-02-19T07:26:09;1.47;;;1.37;;
7383;SDS011;3733;47.994;8.820;2023-02-19T07:28:36;2.80;;;1.50;;
7383;SDS011;3733;47.994;8.820;2023-02-19T07:31:02;1.83;;;1.47;;
7383;SDS011;3733;47.994;8.820;2023-02-19T07:33:29;1.30;;;1.20;;
7383;SDS011;3733;47.994;8.820;2023-02-19T07:35:54;1.40;;;1.30;;
7383;SDS011;3733;47.994;8.820;2023-02-19T07:38:20;1.53;;;1.43;;
7383;SDS011;3733;47.994;8.820;2023-02-19T07:40:54;1.50;;;1.40;;
7383;SDS011;3733;47.994;8.820;2023-02-19T07:43:26;1.50;;;1.40;;
7383;SDS011;3733;47.994;8.820;2023-02-19T07:45:53;1.33;;;1.23;;
7383;SDS011;3733;47.994;8.820;2023-02-19T07:48:19;1.50;;;1.40;;
7383;SDS011;3733;47.994;8.820;2023-02-19T07:53:16;1.43;;;1.30;;
7383;SDS011;3733;47.994;8.820;2023-02-19T07:55:42;1.90;;;1.43;;
7383;SDS011;3733;47.994;8.820;2023-02-19T07:58:08;1.13;;;1.13;;
7383;SDS011;3733;47.994;8.820;2023-02-19T08:00:33;1.27;;;1.20;;
7383;SDS011;3733;47.994;8.820;2023-02-19T08:02:59;2.50;;;2.00;;
7383;SDS011;3733;47.994;8.820;2023-02-19T08:05:29;1.70;;;1.43;;
7383;SDS011;3733;47.994;8.820;2023-02-19T08:07:56;1.30;;;1.20;;
7383;SDS011;3733;47.994;8.820;2023-02-19T08:10:22;1.43;;;1.30;;
7383;SDS011;3733;47.994;8.820;2023-02-19T08:13:09;1.63;;;1.23;;
7383;SDS011;3733;47.994;8.820;2023-02-19T08:15:55;2.00;;;1.50;;
7383;SDS011;3733;47.994;8.820;2023-02-19T08:18:29;2.03;;;1.33;;
7383;SDS011;3733;47.994;8.820;2023-02-19T08:20:56;1.40;;;1.30;;
7383;SDS011;3733;47.994;8.820;2023-02-19T08:23:23;1.03;;;1.03;;
7383;SDS011;3733;47.994;8.820;2023-02-19T08:25:50;2.30;;;2.10;;
7383;SDS011;3733;47.994;8.820;2023-02-19T08:28:17;1.50;;;1.40;;
7383;SDS011;3733;47.994;8.820;2023-02-19T08:30:44;1.30;;;1.20;;
7383;SDS011;3733;47.994;8.820;2023-02-19T08:33:18;1.60;;;1.50;;
7383;SDS011;3733;47.994;8.820;2023-02-19T08:35:44;2.60;;;1.77;;
7383;SDS011;3733;47.994;8.820;2023-02-19T08:38:11;1.60;;;1.50;;
7383;SDS011;3733;47.994;8.820;2023-02-19T08:40:38;1.30;;;1.20;;
7383;SDS011;3733;47.994;8.820;2023-02-19T08:43:05;1.50;;;1.40;;
7383;SDS011;3733;47.994;8.820;2023-02-19T08:45:32;1.17;;;1.10;;
7383;SDS011;3733;47.994;8.820;2023-02-19T08:47:58;1.30;;;1.20;;
7383;SDS011;3733;47.994;8.820;2023-02-19T08:50:24;1.53;;;1.40;;
7383;SDS011;3733;47.994;8.820;2023-02-19T08:52:50;1.40;;;1.30;;
7383;SDS011;3733;47.994;8.820;2023-02-19T08:55:16;1.00;;;1.00;;
7383;SDS011;3733;47.994;8.820;2023-02-19T08:57:42;1.00;;;1.00;;
7383;SDS011;3733;47.994;8.820;2023-02-19T09:00:07;1.20;;;1.20;;
7383;SDS011;3733;47.994;8.820;2023-02-19T09:02:35;1.23;;;1.13;;
7383;SDS011;3733;47.994;8.820;2023-02-19T09:05:01;1.30;;;1.20;;
7383;SDS011;3733;47.994;8.820;2023-02-19T09:07:26;0.90;;;0.90;;
7383;SDS011;3733;47.994;8.820;2023-02-19T09:09:52;2.50;;;1.03;;
7383;SDS011;3733;47.994;8.820;2023-02-19T09:12:18;1.20;;;1.10;;
7383;SDS011;3733;47.994;8.820;2023-02-19T09:14:44;0.90;;;0.90;;
7383;SDS011;3733;47.994;8.820;2023-02-19T09:17:10;0.90;;;0.90;;
7383;SDS011;3733;47.994;8.820;2023-02-19T09:19:36;1.40;;;1.30;;
7383;SDS011;3733;47.994;8.820;2023-02-19T09:22:02;4.43;;;1.60;;
7383;SDS011;3733;47.994;8.820;2023-02-19T09:24:29;1.03;;;1.03;;
7383;SDS011;3733;47.994;8.820;2023-02-19T09:26:56;1.30;;;1.20;;
7383;SDS011;3733;47.994;8.820;2023-02-19T09:29:23;1.20;;;1.10;;
7383;SDS011;3733;47.994;8.820;2023-02-19T09:31:49;1.40;;;1.30;;
7383;SDS011;3733;47.994;8.820;2023-02-19T09:34:15;0.87;;;0.80;;
7383;SDS011;3733;47.994;8.820;2023-02-19T09:36:40;1.20;;;1.10;;
7383;SDS011;3733;47.994;8.820;2023-02-19T09:39:07;1.50;;;1.40;;
7383;SDS011;3733;47.994;8.820;2023-02-19T09:41:34;1.17;;;1.17;;
7383;SDS011;3733;47.994;8.820;2023-02-19T09:44:09;1.40;;;1.30;;
7383;SDS011;3733;47.994;8.820;2023-02-19T09:46:45;1.20;;;1.10;;
7383;SDS011;3733;47.994;8.820;2023-02-19T09:54:29;1.17;;;1.17;;
7383;SDS011;3733;47.994;8.820;2023-02-19T09:56:56;1.00;;;1.00;;
7383;SDS011;3733;47.994;8.820;2023-02-19T09:59:28;4.40;;;1.40;;
7383;SDS011;3733;47.994;8.820;2023-02-19T10:02:02;1.63;;;1.07;;
7383;SDS011;3733;47.994;8.820;2023-02-19T10:04:36;1.50;;;1.40;;
7383;SDS011;3733;47.994;8.820;2023-02-19T10:07:04;1.70;;;1.60;;
7383;SDS011;3733;47.994;8.820;2023-02-19T10:09:37;1.00;;;1.00;;
7383;SDS011;3733;47.994;8.820;2023-02-19T10:12:03;1.13;;;1.13;;
7383;SDS011;3733;47.994;8.820;2023-02-19T10:14:43;1.30;;;1.20;;
7383;SDS011;3733;47.994;8.820;2023-02-19T10:17:23;1.10;;;1.00;;
7383;SDS011;3733;47.994;8.820;2023-02-19T10:19:50;4.50;;;1.47;;
7383;SDS011;3733;47.994;8.820;2023-02-19T10:22:17;3.17;;;1.90;;
7383;SDS011;3733;47.994;8.820;2023-02-19T10:24:44;10.77;;;5.63;;
7383;SDS011;3733;47.994;8.820;2023-02-19T10:27:13;12.77;;;8.50;;
7383;SDS011;3733;47.994;8.820;2023-02-19T10:29:41;8.03;;;5.43;;
7383;SDS011;3733;47.994;8.820;2023-02-19T10:34:47;1.33;;;1.23;;
7383;SDS011;3733;47.994;8.820;2023-02-19T10:37:31;4.77;;;3.30;;
7383;SDS011;3733;47.994;8.820;2023-02-19T10:39:57;1.87;;;1.43;;
7383;SDS011;3733;47.994;8.820;2023-02-19T10:42:23;1.50;;;1.37;;
7383;SDS011;3733;47.994;8.820;2023-02-19T10:44:57;1.27;;;1.17;;
7383;SDS011;3733;47.994;8.820;2023-02-19T10:47:26;1.00;;;1.00;;
7383;SDS011;3733;47.994;8.820;2023-02-19T10:49:55;2.67;;;1.03;;
7383;SDS011;3733;47.994;8.820;2023-02-19T10:52:27;1.20;;;1.10;;
7383;SDS011;3733;47.994;8.820;2023-02-19T10:55:41;1.00;;;1.00;;
7383;SDS011;3733;47.994;8.820;2023-02-19T10:57:52;0.90;;;0.90;;
7383;SDS011;3733;47.994;8.820;2023-02-19T11:00:23;0.80;;;0.80;;
7383;SDS011;3733;47.994;8.820;2023-02-19T11:03:13;1.13;;;1.03;;
7383;SDS011;3733;47.994;8.820;2023-02-19T11:05:49;0.90;;;0.90;;
7383;SDS011;3733;47.994;8.820;2023-02-19T11:08:20;1.10;;;1.00;;
7383;SDS011;3733;47.994;8.820;2023-02-19T11:10:47;1.20;;;1.03;;
7383;SDS011;3733;47.994;8.820;2023-02-19T11:13:15;1.10;;;1.00;;
7383;SDS011;3733;47.994;8.820;2023-02-19T11:15:50;1.00;;;1.00;;
7383;SDS011;3733;47.994;8.820;2023-02-19T11:18:26;1.10;;;1.00;;
7383;SDS011;3733;47.994;8.820;2023-02-19T11:23:42;1.40;;;1.30;;
7383;SDS011;3733;47.994;8.820;2023-02-19T11:26:18;2.20;;;1.40;;
7383;SDS011;3733;47.994;8.820;2023-02-19T11:28:54;2.33;;;1.80;;
7383;SDS011;3733;47.994;8.820;2023-02-19T11:37:14;2.77;;;1.43;;
7383;SDS011;3733;47.994;8.820;2023-02-19T11:39:43;1.60;;;1.50;;
7383;SDS011;3733;47.994;8.820;2023-02-19T11:42:20;1.90;;;1.37;;
7383;SDS011;3733;47.994;8.820;2023-02-19T11:51:04;1.23;;;1.13;;
7383;SDS011;3733;47.994;8.820;2023-02-19T11:53:44;1.43;;;1.30;;
7383;SDS011;3733;47.994;8.820;2023-02-19T11:56:35;1.40;;;1.30;;
7383;SDS011;3733;47.994;8.820;2023-02-19T12:18:43;1.43;;;1.33;;
7383;SDS011;3733;47.994;8.820;2023-02-19T12:27:19;1.30;;;1.20;;
7383;SDS011;3733;47.994;8.820;2023-02-19T12:35:49;1.63;;;1.53;;
7383;SDS011;3733;47.994;8.820;2023-02-19T12:38:50;2.30;;;1.70;;
7383;SDS011;3733;47.994;8.820;2023-02-19T12:41:28;1.37;;;1.30;;
7383;SDS011;3733;47.994;8.820;2023-02-19T12:45:00;1.53;;;1.43;;
7383;SDS011;3733;47.994;8.820;2023-02-19T12:47:05;1.77;;;1.50;;
7383;SDS011;3733;47.994;8.820;2023-02-19T12:49:41;1.53;;;1.43;;
7383;SDS011;3733;47.994;8.820;2023-02-19T12:52:17;3.60;;;1.77;;
7383;SDS011;3733;47.994;8.820;2023-02-19T12:54:50;1.70;;;1.60;;
7383;SDS011;3733;47.994;8.820;2023-02-19T13:03:13;2.37;;;1.93;;
7383;SDS011;3733;47.994;8.820;2023-02-19T13:10:58;1.50;;;1.40;;
7383;SDS011;3733;47.994;8.820;2023-02-19T13:14:03;1.40;;;1.30;;
7383;SDS011;3733;47.994;8.820;2023-02-19T13:16:24;1.27;;;1.17;;
7383;SDS011;3733;47.994;8.820;2023-02-19T13:18:57;1.30;;;1.20;;
7383;SDS011;3733;47.994;8.820;2023-02-19T13:21:27;2.83;;;1.67;;
7383;SDS011;3733;47.994;8.820;2023-02-19T13:24:35;1.80;;;1.70;;
7383;SDS011;3733;47.994;8.820;2023-02-19T13:27:05;1.50;;;1.40;;
7383;SDS011;3733;47.994;8.820;2023-02-19T13:32:36;1.53;;;1.43;;
7383;SDS011;3733;47.994;8.820;2023-02-19T13:37:53;2.83;;;1.43;;
7383;SDS011;3733;47.994;8.820;2023-02-19T13:42:59;2.10;;;1.50;;
7383;SDS011;3733;47.994;8.820;2023-02-19T13:45:42;1.60;;;1.50;;
7383;SDS011;3733;47.994;8.820;2023-02-19T13:50:47;1.67;;;1.57;;
7383;SDS011;3733;47.994;8.820;2023-02-19T14:09:57;5.87;;;1.90;;
7383;SDS011;3733;47.994;8.820;2023-02-19T14:12:43;2.37;;;1.40;;
7383;SDS011;3733;47.994;8.820;2023-02-19T14:24:10;3.00;;;2.23;;
7383;SDS011;3733;47.994;8.820;2023-02-19T14:26:39;2.60;;;1.87;;
7383;SDS011;3733;47.994;8.820;2023-02-19T14:29:06;2.03;;;1.70;;
7383;SDS011;3733;47.994;8.820;2023-02-19T14:31:37;3.60;;;2.33;;
7383;SDS011;3733;47.994;8.820;2023-02-19T14:34:04;2.33;;;2.13;;
7383;SDS011;3733;47.994;8.820;2023-02-19T14:36:43;2.40;;;2.20;;
7383;SDS011;3733;47.994;8.820;2023-02-19T14:39:17;3.10;;;2.67;;
7383;SDS011;3733;47.994;8.820;2023-02-19T14:41:58;4.30;;;2.00;;
7383;SDS011;3733;47.994;8.820;2023-02-19T14:44:27;2.40;;;2.20;;
7383;SDS011;3733;47.994;8.820;2023-02-19T14:47:04;3.67;;;1.73;;
7383;SDS011;3733;47.994;8.820;2023-02-19T14:49:46;3.13;;;1.93;;
7383;SDS011;3733;47.994;8.820;2023-02-19T14:52:17;3.60;;;1.83;;
7383;SDS011;3733;47.994;8.820;2023-02-19T14:57:28;2.57;;;2.10;;
7383;SDS011;3733;47.994;8.820;2023-02-19T15:00:02;5.93;;;1.50;;
7383;SDS011;3733;47.994;8.820;2023-02-19T15:02:43;4.60;;;1.70;;
7383;SDS011;3733;47.994;8.820;2023-02-19T15:05:22;1.90;;;1.80;;
7383;SDS011;3733;47.994;8.820;2023-02-19T15:07:51;2.20;;;1.87;;
7383;SDS011;3733;47.994;8.820;2023-02-19T15:10:19;2.40;;;1.97;;
7383;SDS011;3733;47.994;8.820;2023-02-19T15:12:49;2.03;;;1.70;;
7383;SDS011;3733;47.994;8.820;2023-02-19T15:15:19;3.33;;;2.50;;
7383;SDS011;3733;47.994;8.820;2023-02-19T15:17:46;3.40;;;2.20;;
7383;SDS011;3733;47.994;8.820;2023-02-19T15:20:16;3.17;;;2.30;;
7383;SDS011;3733;47.994;8.820;2023-02-19T15:22:43;4.17;;;2.47;;
7383;SDS011;3733;47.994;8.820;2023-02-19T15:25:20;2.30;;;1.70;;
7383;SDS011;3733;47.994;8.820;2023-02-19T15:27:47;7.17;;;1.90;;
7383;SDS011;3733;47.994;8.820;2023-02-19T15:30:23;2.30;;;1.80;;
7383;SDS011;3733;47.994;8.820;2023-02-19T15:32:56;2.53;;;2.03;;
7383;SDS011;3733;47.994;8.820;2023-02-19T15:35:23;4.07;;;2.40;;
7383;SDS011;3733;47.994;8.820;2023-02-19T15:37:51;2.97;;;1.97;;
7383;SDS011;3733;47.994;8.820;2023-02-19T15:40:19;5.33;;;2.43;;
7383;SDS011;3733;47.994;8.820;2023-02-19T15:42:50;4.33;;;2.10;;
7383;SDS011;3733;47.994;8.820;2023-02-19T15:45:21;3.07;;;2.10;;
7383;SDS011;3733;47.994;8.820;2023-02-19T15:47:48;3.60;;;2.00;;
7383;SDS011;3733;47.994;8.820;2023-02-19T15:50:16;1.60;;;1.50;;
7383;SDS011;3733;47.994;8.820;2023-02-19T15:58:30;1.83;;;1.50;;
7383;SDS011;3733;47.994;8.820;2023-02-19T16:01:03;9.33;;;2.10;;
7383;SDS011;3733;47.994;8.820;2023-02-19T16:03:32;3.43;;;2.00;;
7383;SDS011;3733;47.994;8.820;2023-02-19T16:06:11;4.70;;;2.17;;
7383;SDS011;3733;47.994;8.820;2023-02-19T16:08:40;2.80;;;2.30;;
7383;SDS011;3733;47.994;8.820;2023-02-19T16:13:52;2.03;;;1.83;;
7383;SDS011;3733;47.994;8.820;2023-02-19T16:16:38;2.13;;;1.93;;
7383;SDS011;3733;47.994;8.820;2023-02-19T16:19:05;3.87;;;2.20;;
7383;SDS011;3733;47.994;8.820;2023-02-19T16:21:31;4.87;;;2.17;;
7383;SDS011;3733;47.994;8.820;2023-02-19T16:24:02;4.87;;;1.93;;
7383;SDS011;3733;47.994;8.820;2023-02-19T16:26:39;4.83;;;3.13;;
7383;SDS011;3733;47.994;8.820;2023-02-19T16:29:15;2.30;;;2.10;;
7383;SDS011;3733;47.994;8.820;2023-02-19T16:32:02;2.20;;;1.70;;
7383;SDS011;3733;47.994;8.820;2023-02-19T16:45:15;4.83;;;3.10;;
7383;SDS011;3733;47.994;8.820;2023-02-19T16:47:41;4.97;;;2.93;;
7383;SDS011;3733;47.994;8.820;2023-02-19T16:50:15;2.30;;;2.10;;
7383;SDS011;3733;47.994;8.820;2023-02-19T16:52:53;5.07;;;2.90;;
7383;SDS011;3733;47.994;8.820;2023-02-19T16:55:19;2.87;;;1.97;;
7383;SDS011;3733;47.994;8.820;2023-02-19T16:57:45;3.63;;;2.30;;
7383;SDS011;3733;47.994;8.820;2023-02-19T17:00:44;3.50;;;2.50;;
7383;SDS011;3733;47.994;8.820;2023-02-19T17:03:06;3.53;;;2.50;;
7383;SDS011;3733;47.994;8.820;2023-02-19T17:05:37;3.10;;;2.60;;
7383;SDS011;3733;47.994;8.820;2023-02-19T17:08:07;3.80;;;2.77;;
7383;SDS011;3733;47.994;8.820;2023-02-19T17:10:43;3.83;;;2.60;;
7383;SDS011;3733;47.994;8.820;2023-02-19T17:13:09;5.27;;;2.80;;
7383;SDS011;3733;47.994;8.820;2023-02-19T17:15:35;4.80;;;3.00;;
7383;SDS011;3733;47.994;8.820;2023-02-19T17:18:00;2.90;;;2.60;;
7383;SDS011;3733;47.994;8.820;2023-02-19T17:20:26;3.70;;;1.97;;
7383;SDS011;3733;47.994;8.820;2023-02-19T17:22:54;6.20;;;2.77;;
7383;SDS011;3733;47.994;8.820;2023-02-19T17:25:21;3.20;;;2.20;;
7383;SDS011;3733;47.994;8.820;2023-02-19T17:27:47;3.67;;;2.33;;
7383;SDS011;3733;47.994;8.820;2023-02-19T17:30:15;2.50;;;2.13;;
7383;SDS011;3733;47.994;8.820;2023-02-19T17:32:43;4.73;;;2.40;;
7383;SDS011;3733;47.994;8.820;2023-02-19T17:35:09;2.60;;;2.30;;
7383;SDS011;3733;47.994;8.820;2023-02-19T17:37:35;3.33;;;2.40;;
7383;SDS011;3733;47.994;8.820;2023-02-19T17:40:00;3.73;;;2.73;;
7383;SDS011;3733;47.994;8.820;2023-02-19T17:42:26;7.87;;;3.27;;
7383;SDS011;3733;47.994;8.820;2023-02-19T17:44:51;2.43;;;2.23;;
7383;SDS011;3733;47.994;8.820;2023-02-19T17:47:18;2.83;;;2.53;;
7383;SDS011;3733;47.994;8.820;2023-02-19T17:49:44;6.67;;;2.93;;
7383;SDS011;3733;47.994;8.820;2023-02-19T17:52:09;4.80;;;2.63;;
7383;SDS011;3733;47.994;8.820;2023-02-19T17:54:36;6.83;;;3.40;;
7383;SDS011;3733;47.994;8.820;2023-02-19T17:57:01;2.83;;;2.40;;
7383;SDS011;3733;47.994;8.820;2023-02-19T17:59:27;5.17;;;2.47;;
7383;SDS011;3733;47.994;8.820;2023-02-19T18:01:53;3.90;;;2.67;;
7383;SDS011;3733;47.994;8.820;2023-02-19T18:04:19;6.00;;;2.90;;
7383;SDS011;3733;47.994;8.820;2023-02-19T18:06:44;7.57;;;2.60;;
7383;SDS011;3733;47.994;8.820;2023-02-19T18:09:10;3.97;;;2.50;;
7383;SDS011;3733;47.994;8.820;2023-02-19T18:11:42;4.57;;;3.03;;
7383;SDS011;3733;47.994;8.820;2023-02-19T18:14:09;4.40;;;3.17;;